sensor_id;sensor_type;location;lat;lon;timestamp;pressure;altitude;pressure_sealevel;temperature;humidity
79461;BME280;68929;42.666;23.324;2023-07-29T00:01:49;94407.69;;;22.82;nan
79461;BME280;68929;42.666;23.324;2023-07-29T00:04:14;94402.91;;;22.92;nan
79461;BME280;68929;42.666;23.324;2023-07-29T00:06:40;94405.94;;;22.72;nan
79461;BME280;68929;42.666;23.324;2023-07-29T00:09:05;94411.66;;;22.84;nan
79461;BME280;68929;42.666;23.324;2023-07-29T00:11:31;94419.09;;;22.92;nan
79461;BME280;68929;42.666;23.324;2023-07-29T00:13:59;94417.72;;;22.76;nan
79461;BME280;68929;42.666;23.324;2023-07-29T00:16:25;94427.63;;;22.81;nan
79461;BME280;68929;42.666;23.324;2023-07-29T00:18:51;94409.38;;;22.59;nan
79461;BME280;68929;42.666;23.324;2023-07-29T00:21:16;94423.94;;;22.58;nan
79461;BME280;68929;42.666;23.324;2023-07-29T00:23:42;94402.53;;;22.48;nan
79461;BME280;68929;42.666;23.324;2023-07-29T00:26:07;94404.13;;;22.49;nan
79461;BME280;68929;42.666;23.324;2023-07-29T00:28:33;94414.47;;;22.42;nan
79461;BME280;68929;42.666;23.324;2023-07-29T00:30:58;94407.78;;;22.40;nan
79461;BME280;68929;42.666;23.324;2023-07-29T00:33:23;94399.63;;;22.26;nan
79461;BME280;68929;42.666;23.324;2023-07-29T00:35:49;94408.50;;;22.08;nan
79461;BME280;68929;42.666;23.324;2023-07-29T00:38:14;94390.81;;;21.83;nan
79461;BME280;68929;42.666;23.324;2023-07-29T00:40:40;94408.50;;;22.08;nan
79461;BME280;68929;42.666;23.324;2023-07-29T00:43:05;94404.13;;;22.12;nan
79461;BME280;68929;42.666;23.324;2023-07-29T00:45:32;94417.59;;;22.12;nan
79461;BME280;68929;42.666;23.324;2023-07-29T00:47:59;94403.25;;;21.98;nan
79461;BME280;68929;42.666;23.324;2023-07-29T00:50:25;94408.19;;;21.91;nan
79461;BME280;68929;42.666;23.324;2023-07-29T00:52:53;94404.88;;;21.75;nan
79461;BME280;68929;42.666;23.324;2023-07-29T00:55:18;94418.00;;;21.82;nan
79461;BME280;68929;42.666;23.324;2023-07-29T00:57:44;94388.06;;;21.65;nan
79461;BME280;68929;42.666;23.324;2023-07-29T01:00:14;94410.72;;;21.82;nan
79461;BME280;68929;42.666;23.324;2023-07-29T01:02:39;94396.63;;;21.67;nan
79461;BME280;68929;42.666;23.324;2023-07-29T01:05:05;94405.59;;;21.86;nan
79461;BME280;68929;42.666;23.324;2023-07-29T01:13:06;94409.56;;;21.65;nan
79461;BME280;68929;42.666;23.324;2023-07-29T01:16:38;94409.25;;;21.47;nan
79461;BME280;68929;42.666;23.324;2023-07-29T01:18:45;94378.59;;;21.25;nan
79461;BME280;68929;42.666;23.324;2023-07-29T01:21:13;94392.75;;;21.54;nan
79461;BME280;68929;42.666;23.324;2023-07-29T01:23:39;94392.63;;;21.64;nan
79461;BME280;68929;42.666;23.324;2023-07-29T01:26:05;94387.88;;;21.80;nan
79461;BME280;68929;42.666;23.324;2023-07-29T01:28:30;94391.19;;;21.72;nan
79461;BME280;68929;42.666;23.324;2023-07-29T01:31:22;94415.31;;;21.82;nan
79461;BME280;68929;42.666;23.324;2023-07-29T01:33:58;94398.13;;;21.78;nan
79461;BME280;68929;42.666;23.324;2023-07-29T01:36:28;94413.56;;;21.91;nan
79461;BME280;68929;42.666;23.324;2023-07-29T01:38:56;94409.72;;;21.97;nan
79461;BME280;68929;42.666;23.324;2023-07-29T01:41:22;94406.09;;;21.88;nan
79461;BME280;68929;42.666;23.324;2023-07-29T01:43:49;94399.84;;;21.92;nan
79461;BME280;68929;42.666;23.324;2023-07-29T01:46:15;94402.53;;;22.11;nan
79461;BME280;68929;42.666;23.324;2023-07-29T01:48:41;94408.34;;;22.18;nan
79461;BME280;68929;42.666;23.324;2023-07-29T01:51:07;94380.72;;;21.94;nan
79461;BME280;68929;42.666;23.324;2023-07-29T01:53:34;94396.06;;;21.93;nan
79461;BME280;68929;42.666;23.324;2023-07-29T01:55:59;94412.50;;;21.92;nan
79461;BME280;68929;42.666;23.324;2023-07-29T01:58:25;94395.47;;;21.73;nan
79461;BME280;68929;42.666;23.324;2023-07-29T02:00:50;94401.00;;;21.63;nan
79461;BME280;68929;42.666;23.324;2023-07-29T02:03:16;94398.19;;;21.73;nan
79461;BME280;68929;42.666;23.324;2023-07-29T02:05:41;94384.00;;;21.67;nan
79461;BME280;68929;42.666;23.324;2023-07-29T02:08:09;94404.72;;;21.67;nan
79461;BME280;68929;42.666;23.324;2023-07-29T02:10:34;94410.03;;;21.48;nan
79461;BME280;68929;42.666;23.324;2023-07-29T02:13:00;94399.28;;;21.24;nan
79461;BME280;68929;42.666;23.324;2023-07-29T02:15:25;94406.19;;;21.30;nan
79461;BME280;68929;42.666;23.324;2023-07-29T02:17:51;94411.06;;;21.28;nan
79461;BME280;68929;42.666;23.324;2023-07-29T02:20:17;94400.97;;;21.15;nan
79461;BME280;68929;42.666;23.324;2023-07-29T02:22:42;94414.25;;;21.30;nan
79461;BME280;68929;42.666;23.324;2023-07-29T02:25:08;94411.47;;;21.40;nan
79461;BME280;68929;42.666;23.324;2023-07-29T02:27:35;94408.22;;;21.43;nan
79461;BME280;68929;42.666;23.324;2023-07-29T02:30:00;94412.88;;;21.80;nan
79461;BME280;68929;42.666;23.324;2023-07-29T02:32:25;94422.44;;;21.91;nan
79461;BME280;68929;42.666;23.324;2023-07-29T02:34:51;94413.34;;;21.64;nan
79461;BME280;68929;42.666;23.324;2023-07-29T02:37:16;94407.91;;;21.69;nan
79461;BME280;68929;42.666;23.324;2023-07-29T02:39:42;94396.22;;;21.36;nan
79461;BME280;68929;42.666;23.324;2023-07-29T02:42:07;94407.31;;;21.29;nan
79461;BME280;68929;42.666;23.324;2023-07-29T02:44:33;94401.03;;;21.10;nan
79461;BME280;68929;42.666;23.324;2023-07-29T02:46:58;94404.88;;;21.04;nan
79461;BME280;68929;42.666;23.324;2023-07-29T02:49:23;94411.66;;;21.25;nan
79461;BME280;68929;42.666;23.324;2023-07-29T02:51:49;94406.47;;;21.05;nan
79461;BME280;68929;42.666;23.324;2023-07-29T02:54:14;94400.53;;;21.08;nan
79461;BME280;68929;42.666;23.324;2023-07-29T02:56:40;94417.34;;;21.42;nan
79461;BME280;68929;42.666;23.324;2023-07-29T02:59:05;94401.34;;;21.32;nan
79461;BME280;68929;42.666;23.324;2023-07-29T03:01:31;94404.50;;;21.39;nan
79461;BME280;68929;42.666;23.324;2023-07-29T03:03:56;94425.84;;;21.55;nan
79461;BME280;68929;42.666;23.324;2023-07-29T03:06:22;94417.09;;;21.15;nan
79461;BME280;68929;42.666;23.324;2023-07-29T03:08:47;94410.34;;;20.89;nan
79461;BME280;68929;42.666;23.324;2023-07-29T03:11:14;94436.72;;;21.16;nan
79461;BME280;68929;42.666;23.324;2023-07-29T03:13:39;94428.47;;;21.36;nan
79461;BME280;68929;42.666;23.324;2023-07-29T03:16:12;94436.47;;;21.41;nan
79461;BME280;68929;42.666;23.324;2023-07-29T03:18:39;94432.00;;;21.31;nan
79461;BME280;68929;42.666;23.324;2023-07-29T03:21:05;94438.94;;;21.37;nan
79461;BME280;68929;42.666;23.324;2023-07-29T03:23:31;94428.03;;;21.53;nan
79461;BME280;68929;42.666;23.324;2023-07-29T03:25:58;94430.72;;;21.53;nan
79461;BME280;68929;42.666;23.324;2023-07-29T03:28:26;94438.09;;;21.42;nan
79461;BME280;68929;42.666;23.324;2023-07-29T03:30:53;94430.47;;;21.25;nan
79461;BME280;68929;42.666;23.324;2023-07-29T03:33:18;94443.16;;;21.43;nan
79461;BME280;68929;42.666;23.324;2023-07-29T03:35:43;94425.63;;;21.22;nan
79461;BME280;68929;42.666;23.324;2023-07-29T03:38:10;94430.41;;;21.30;nan
79461;BME280;68929;42.666;23.324;2023-07-29T03:40:36;94433.22;;;21.44;nan
79461;BME280;68929;42.666;23.324;2023-07-29T03:43:02;94442.53;;;21.52;nan
79461;BME280;68929;42.666;23.324;2023-07-29T03:45:27;94425.38;;;21.47;nan
79461;BME280;68929;42.666;23.324;2023-07-29T03:47:53;94438.00;;;21.47;nan
79461;BME280;68929;42.666;23.324;2023-07-29T03:50:18;94446.88;;;21.47;nan
79461;BME280;68929;42.666;23.324;2023-07-29T03:52:44;94443.84;;;21.54;nan
79461;BME280;68929;42.666;23.324;2023-07-29T03:55:09;94446.44;;;21.64;nan
79461;BME280;68929;42.666;23.324;2023-07-29T03:57:35;94421.38;;;21.69;nan
79461;BME280;68929;42.666;23.324;2023-07-29T04:00:00;94404.56;;;21.82;nan
79461;BME280;68929;42.666;23.324;2023-07-29T04:02:26;94425.09;;;22.15;nan
79461;BME280;68929;42.666;23.324;2023-07-29T04:04:54;94423.34;;;22.24;nan
79461;BME280;68929;42.666;23.324;2023-07-29T04:07:20;94445.34;;;22.31;nan
79461;BME280;68929;42.666;23.324;2023-07-29T04:09:45;94444.81;;;22.29;nan
79461;BME280;68929;42.666;23.324;2023-07-29T04:12:11;94449.84;;;22.17;nan
79461;BME280;68929;42.666;23.324;2023-07-29T04:14:36;94435.38;;;22.13;nan
79461;BME280;68929;42.666;23.324;2023-07-29T04:17:02;94419.78;;;22.10;nan
79461;BME280;68929;42.666;23.324;2023-07-29T04:19:27;94446.00;;;22.42;nan
79461;BME280;68929;42.666;23.324;2023-07-29T04:21:53;94453.28;;;22.60;nan
79461;BME280;68929;42.666;23.324;2023-07-29T04:24:18;94435.56;;;22.72;nan
79461;BME280;68929;42.666;23.324;2023-07-29T04:26:45;94442.25;;;22.93;nan
79461;BME280;68929;42.666;23.324;2023-07-29T04:29:11;94437.47;;;23.04;nan
79461;BME280;68929;42.666;23.324;2023-07-29T04:31:37;94411.06;;;22.87;nan
79461;BME280;68929;42.666;23.324;2023-07-29T04:34:02;94441.88;;;23.14;nan
79461;BME280;68929;42.666;23.324;2023-07-29T04:36:28;94453.78;;;23.13;nan
79461;BME280;68929;42.666;23.324;2023-07-29T04:38:53;94441.06;;;22.99;nan
79461;BME280;68929;42.666;23.324;2023-07-29T04:41:18;94443.66;;;22.72;nan
79461;BME280;68929;42.666;23.324;2023-07-29T04:43:44;94437.59;;;22.80;nan
79461;BME280;68929;42.666;23.324;2023-07-29T04:46:09;94434.81;;;22.85;nan
79461;BME280;68929;42.666;23.324;2023-07-29T04:48:34;94423.88;;;22.95;nan
79461;BME280;68929;42.666;23.324;2023-07-29T04:51:00;94444.31;;;23.15;nan
79461;BME280;68929;42.666;23.324;2023-07-29T04:53:25;94458.16;;;23.09;nan
79461;BME280;68929;42.666;23.324;2023-07-29T04:55:51;94458.50;;;23.21;nan
79461;BME280;68929;42.666;23.324;2023-07-29T04:58:16;94450.78;;;23.14;nan
79461;BME280;68929;42.666;23.324;2023-07-29T05:00:41;94456.97;;;23.15;nan
79461;BME280;68929;42.666;23.324;2023-07-29T05:03:07;94436.84;;;22.93;nan
79461;BME280;68929;42.666;23.324;2023-07-29T05:05:32;94470.03;;;23.08;nan
79461;BME280;68929;42.666;23.324;2023-07-29T05:07:58;94471.09;;;22.74;nan
79461;BME280;68929;42.666;23.324;2023-07-29T05:10:23;94472.50;;;22.90;nan
79461;BME280;68929;42.666;23.324;2023-07-29T05:12:49;94462.34;;;22.82;nan
79461;BME280;68929;42.666;23.324;2023-07-29T05:15:14;94477.94;;;22.85;nan
79461;BME280;68929;42.666;23.324;2023-07-29T05:17:40;94462.97;;;22.79;nan
79461;BME280;68929;42.666;23.324;2023-07-29T05:20:06;94486.19;;;22.94;nan
79461;BME280;68929;42.666;23.324;2023-07-29T05:22:31;94456.47;;;22.80;nan
79461;BME280;68929;42.666;23.324;2023-07-29T05:24:57;94465.31;;;22.67;nan
79461;BME280;68929;42.666;23.324;2023-07-29T05:27:22;94452.25;;;22.74;nan
79461;BME280;68929;42.666;23.324;2023-07-29T05:29:48;94480.81;;;23.08;nan
79461;BME280;68929;42.666;23.324;2023-07-29T05:32:13;94481.41;;;23.04;nan
79461;BME280;68929;42.666;23.324;2023-07-29T05:34:38;94477.72;;;23.33;nan
79461;BME280;68929;42.666;23.324;2023-07-29T05:37:04;94487.47;;;23.61;nan
79461;BME280;68929;42.666;23.324;2023-07-29T05:39:30;94477.75;;;23.46;nan
79461;BME280;68929;42.666;23.324;2023-07-29T05:41:57;94497.47;;;23.74;nan
79461;BME280;68929;42.666;23.324;2023-07-29T05:44:22;94494.56;;;23.57;nan
79461;BME280;68929;42.666;23.324;2023-07-29T05:46:48;94483.19;;;23.87;nan
79461;BME280;68929;42.666;23.324;2023-07-29T05:49:13;94497.41;;;24.06;nan
79461;BME280;68929;42.666;23.324;2023-07-29T05:51:39;94476.81;;;24.10;nan
79461;BME280;68929;42.666;23.324;2023-07-29T05:54:04;94492.19;;;23.96;nan
79461;BME280;68929;42.666;23.324;2023-07-29T05:56:29;94474.78;;;24.02;nan
79461;BME280;68929;42.666;23.324;2023-07-29T05:58:56;94493.41;;;24.17;nan
79461;BME280;68929;42.666;23.324;2023-07-29T06:01:22;94465.69;;;24.12;nan
79461;BME280;68929;42.666;23.324;2023-07-29T06:03:47;94501.81;;;24.16;nan
79461;BME280;68929;42.666;23.324;2023-07-29T06:06:13;94501.41;;;24.22;nan
79461;BME280;68929;42.666;23.324;2023-07-29T06:08:38;94475.81;;;24.20;nan
79461;BME280;68929;42.666;23.324;2023-07-29T06:11:03;94490.44;;;24.05;nan
79461;BME280;68929;42.666;23.324;2023-07-29T06:13:32;94490.72;;;24.67;nan
79461;BME280;68929;42.666;23.324;2023-07-29T06:15:57;94489.00;;;24.08;nan
79461;BME280;68929;42.666;23.324;2023-07-29T06:18:22;94465.56;;;24.44;nan
79461;BME280;68929;42.666;23.324;2023-07-29T06:20:48;94467.66;;;24.83;nan
79461;BME280;68929;42.666;23.324;2023-07-29T06:23:13;94465.56;;;24.30;nan
79461;BME280;68929;42.666;23.324;2023-07-29T06:25:39;94456.28;;;24.36;nan
79461;BME280;68929;42.666;23.324;2023-07-29T06:28:04;94467.13;;;24.58;nan
79461;BME280;68929;42.666;23.324;2023-07-29T06:30:30;94479.34;;;25.14;nan
79461;BME280;68929;42.666;23.324;2023-07-29T06:32:55;94462.88;;;25.24;nan
79461;BME280;68929;42.666;23.324;2023-07-29T06:35:21;94475.84;;;25.66;nan
79461;BME280;68929;42.666;23.324;2023-07-29T06:37:46;94465.78;;;25.97;nan
79461;BME280;68929;42.666;23.324;2023-07-29T06:40:11;94471.31;;;26.14;nan
79461;BME280;68929;42.666;23.324;2023-07-29T06:42:37;94469.16;;;26.51;nan
79461;BME280;68929;42.666;23.324;2023-07-29T06:45:04;94461.47;;;26.36;nan
79461;BME280;68929;42.666;23.324;2023-07-29T06:47:30;94445.03;;;26.24;nan
79461;BME280;68929;42.666;23.324;2023-07-29T06:49:55;94456.84;;;26.36;nan
79461;BME280;68929;42.666;23.324;2023-07-29T06:52:20;94436.47;;;26.39;nan
79461;BME280;68929;42.666;23.324;2023-07-29T06:54:46;94445.25;;;26.70;nan
79461;BME280;68929;42.666;23.324;2023-07-29T06:57:11;94458.03;;;26.95;nan
79461;BME280;68929;42.666;23.324;2023-07-29T06:59:36;94467.44;;;27.40;nan
79461;BME280;68929;42.666;23.324;2023-07-29T07:02:02;94458.81;;;27.21;nan
79461;BME280;68929;42.666;23.324;2023-07-29T07:04:28;94467.91;;;27.42;nan
79461;BME280;68929;42.666;23.324;2023-07-29T07:06:53;94461.53;;;27.38;nan
79461;BME280;68929;42.666;23.324;2023-07-29T07:09:19;94465.31;;;27.46;nan
79461;BME280;68929;42.666;23.324;2023-07-29T07:11:44;94451.31;;;27.35;nan
79461;BME280;68929;42.666;23.324;2023-07-29T07:14:10;94439.25;;;27.62;nan
79461;BME280;68929;42.666;23.324;2023-07-29T07:16:35;94448.09;;;27.88;nan
79461;BME280;68929;42.666;23.324;2023-07-29T07:19:02;94464.88;;;27.90;nan
79461;BME280;68929;42.666;23.324;2023-07-29T07:21:28;94455.59;;;28.00;nan
79461;BME280;68929;42.666;23.324;2023-07-29T07:23:53;94460.28;;;28.20;nan
79461;BME280;68929;42.666;23.324;2023-07-29T07:26:18;94463.81;;;27.74;nan
79461;BME280;68929;42.666;23.324;2023-07-29T07:28:44;94456.59;;;27.87;nan
79461;BME280;68929;42.666;23.324;2023-07-29T07:31:09;94438.72;;;28.15;nan
79461;BME280;68929;42.666;23.324;2023-07-29T07:33:35;94444.38;;;28.10;nan
79461;BME280;68929;42.666;23.324;2023-07-29T07:36:00;94458.63;;;28.27;nan
79461;BME280;68929;42.666;23.324;2023-07-29T07:38:25;94442.13;;;28.12;nan
79461;BME280;68929;42.666;23.324;2023-07-29T07:40:55;94440.72;;;28.06;nan
79461;BME280;68929;42.666;23.324;2023-07-29T07:43:21;94448.66;;;28.11;nan
79461;BME280;68929;42.666;23.324;2023-07-29T07:45:46;94436.31;;;28.22;nan
79461;BME280;68929;42.666;23.324;2023-07-29T07:48:17;94431.25;;;28.12;nan
79461;BME280;68929;42.666;23.324;2023-07-29T07:50:43;94441.69;;;28.60;nan
79461;BME280;68929;42.666;23.324;2023-07-29T07:53:08;94436.72;;;28.32;nan
79461;BME280;68929;42.666;23.324;2023-07-29T07:55:34;94436.63;;;28.50;nan
79461;BME280;68929;42.666;23.324;2023-07-29T07:57:59;94443.97;;;28.49;nan
79461;BME280;68929;42.666;23.324;2023-07-29T08:00:24;94439.19;;;28.46;nan
79461;BME280;68929;42.666;23.324;2023-07-29T08:02:50;94440.75;;;28.76;nan
79461;BME280;68929;42.666;23.324;2023-07-29T08:05:15;94450.97;;;28.59;nan
79461;BME280;68929;42.666;23.324;2023-07-29T08:07:40;94445.34;;;28.55;nan
79461;BME280;68929;42.666;23.324;2023-07-29T08:10:09;94435.31;;;28.76;nan
79461;BME280;68929;42.666;23.324;2023-07-29T08:12:34;94450.31;;;28.82;nan
79461;BME280;68929;42.666;23.324;2023-07-29T08:15:00;94434.78;;;29.03;nan
79461;BME280;68929;42.666;23.324;2023-07-29T08:17:25;94464.47;;;29.29;nan
79461;BME280;68929;42.666;23.324;2023-07-29T08:19:50;94436.63;;;28.91;nan
79461;BME280;68929;42.666;23.324;2023-07-29T08:22:16;94456.69;;;28.86;nan
79461;BME280;68929;42.666;23.324;2023-07-29T08:24:42;94464.09;;;28.77;nan
79461;BME280;68929;42.666;23.324;2023-07-29T08:27:08;94434.31;;;28.60;nan
79461;BME280;68929;42.666;23.324;2023-07-29T08:29:33;94439.66;;;28.89;nan
79461;BME280;68929;42.666;23.324;2023-07-29T08:31:59;94455.75;;;29.23;nan
79461;BME280;68929;42.666;23.324;2023-07-29T08:34:24;94447.19;;;29.46;nan
79461;BME280;68929;42.666;23.324;2023-07-29T08:36:49;94453.06;;;29.36;nan
79461;BME280;68929;42.666;23.324;2023-07-29T08:39:15;94446.34;;;29.12;nan
79461;BME280;68929;42.666;23.324;2023-07-29T08:41:55;94456.94;;;28.93;nan
79461;BME280;68929;42.666;23.324;2023-07-29T08:44:25;94443.50;;;29.30;nan
79461;BME280;68929;42.666;23.324;2023-07-29T08:46:52;94441.81;;;29.70;nan
79461;BME280;68929;42.666;23.324;2023-07-29T08:49:19;94421.84;;;29.78;nan
79461;BME280;68929;42.666;23.324;2023-07-29T08:51:46;94456.63;;;29.93;nan
79461;BME280;68929;42.666;23.324;2023-07-29T08:54:14;94438.66;;;29.92;nan
79461;BME280;68929;42.666;23.324;2023-07-29T08:56:42;94438.47;;;29.97;nan
79461;BME280;68929;42.666;23.324;2023-07-29T08:59:08;94429.59;;;30.24;nan
79461;BME280;68929;42.666;23.324;2023-07-29T09:01:34;94417.78;;;30.44;nan
79461;BME280;68929;42.666;23.324;2023-07-29T09:03:59;94415.28;;;30.15;nan
79461;BME280;68929;42.666;23.324;2023-07-29T09:06:25;94424.38;;;30.31;nan
79461;BME280;68929;42.666;23.324;2023-07-29T09:08:53;94423.22;;;30.56;nan
79461;BME280;68929;42.666;23.324;2023-07-29T09:11:20;94432.25;;;30.85;nan
79461;BME280;68929;42.666;23.324;2023-07-29T09:13:45;94427.47;;;30.82;nan
79461;BME280;68929;42.666;23.324;2023-07-29T09:16:11;94412.91;;;30.90;nan
79461;BME280;68929;42.666;23.324;2023-07-29T09:18:37;94403.16;;;30.76;nan
79461;BME280;68929;42.666;23.324;2023-07-29T09:21:02;94419.19;;;30.90;nan
79461;BME280;68929;42.666;23.324;2023-07-29T09:23:28;94393.19;;;30.68;nan
79461;BME280;68929;42.666;23.324;2023-07-29T09:26:01;94394.31;;;30.67;nan
79461;BME280;68929;42.666;23.324;2023-07-29T09:28:33;94408.75;;;30.68;nan
79461;BME280;68929;42.666;23.324;2023-07-29T09:30:59;94385.84;;;30.85;nan
79461;BME280;68929;42.666;23.324;2023-07-29T09:33:28;94404.06;;;30.81;nan
79461;BME280;68929;42.666;23.324;2023-07-29T09:35:53;94386.53;;;30.94;nan
79461;BME280;68929;42.666;23.324;2023-07-29T09:38:28;94392.97;;;31.29;nan
79461;BME280;68929;42.666;23.324;2023-07-29T09:40:55;94402.28;;;31.28;nan
79461;BME280;68929;42.666;23.324;2023-07-29T09:43:32;94389.81;;;31.27;nan
79461;BME280;68929;42.666;23.324;2023-07-29T09:46:01;94380.97;;;31.33;nan
79461;BME280;68929;42.666;23.324;2023-07-29T09:48:27;94387.59;;;31.60;nan
79461;BME280;68929;42.666;23.324;2023-07-29T09:50:56;94388.19;;;31.53;nan
79461;BME280;68929;42.666;23.324;2023-07-29T09:53:21;94385.91;;;31.87;nan
79461;BME280;68929;42.666;23.324;2023-07-29T09:55:48;94397.72;;;31.91;nan
79461;BME280;68929;42.666;23.324;2023-07-29T09:58:26;94371.00;;;31.84;nan
79461;BME280;68929;42.666;23.324;2023-07-29T10:00:52;94373.16;;;32.41;nan
79461;BME280;68929;42.666;23.324;2023-07-29T10:03:19;94375.75;;;32.88;nan
79461;BME280;68929;42.666;23.324;2023-07-29T10:05:46;94380.78;;;33.43;nan
79461;BME280;68929;42.666;23.324;2023-07-29T10:08:12;94366.44;;;33.72;nan
79461;BME280;68929;42.666;23.324;2023-07-29T10:10:40;94358.16;;;33.92;nan
79461;BME280;68929;42.666;23.324;2023-07-29T10:13:06;94368.09;;;34.00;nan
79461;BME280;68929;42.666;23.324;2023-07-29T10:15:35;94380.34;;;34.06;nan
79461;BME280;68929;42.666;23.324;2023-07-29T10:18:01;94367.19;;;34.67;nan
79461;BME280;68929;42.666;23.324;2023-07-29T10:20:30;94367.25;;;35.37;nan
79461;BME280;68929;42.666;23.324;2023-07-29T10:22:56;94365.81;;;35.87;nan
79461;BME280;68929;42.666;23.324;2023-07-29T10:25:24;94362.06;;;36.63;nan
79461;BME280;68929;42.666;23.324;2023-07-29T10:27:56;94353.41;;;36.61;nan
79461;BME280;68929;42.666;23.324;2023-07-29T10:30:24;94352.94;;;37.21;nan
79461;BME280;68929;42.666;23.324;2023-07-29T10:32:49;94349.63;;;36.87;nan
79461;BME280;68929;42.666;23.324;2023-07-29T10:35:15;94338.09;;;37.68;nan
79461;BME280;68929;42.666;23.324;2023-07-29T10:37:42;94338.03;;;37.43;nan
79461;BME280;68929;42.666;23.324;2023-07-29T10:40:10;94325.91;;;38.28;nan
79461;BME280;68929;42.666;23.324;2023-07-29T10:42:37;94340.50;;;38.22;nan
79461;BME280;68929;42.666;23.324;2023-07-29T10:45:17;94323.81;;;37.27;nan
79461;BME280;68929;42.666;23.324;2023-07-29T10:47:43;94345.03;;;37.16;nan
79461;BME280;68929;42.666;23.324;2023-07-29T10:50:19;94324.69;;;37.66;nan
79461;BME280;68929;42.666;23.324;2023-07-29T10:52:49;94341.22;;;38.79;nan
79461;BME280;68929;42.666;23.324;2023-07-29T10:55:27;94326.22;;;38.80;nan
79461;BME280;68929;42.666;23.324;2023-07-29T10:58:05;94321.16;;;39.47;nan
79461;BME280;68929;42.666;23.324;2023-07-29T11:00:30;94303.50;;;39.92;nan
79461;BME280;68929;42.666;23.324;2023-07-29T11:03:02;94317.03;;;39.76;nan
79461;BME280;68929;42.666;23.324;2023-07-29T11:05:49;94297.00;;;40.13;nan
79461;BME280;68929;42.666;23.324;2023-07-29T11:08:27;94311.09;;;41.04;nan
79461;BME280;68929;42.666;23.324;2023-07-29T11:11:08;94314.31;;;41.02;nan
79461;BME280;68929;42.666;23.324;2023-07-29T11:13:37;94315.97;;;41.57;nan
79461;BME280;68929;42.666;23.324;2023-07-29T11:16:04;94310.50;;;41.50;nan
79461;BME280;68929;42.666;23.324;2023-07-29T11:18:35;94312.59;;;40.37;nan
79461;BME280;68929;42.666;23.324;2023-07-29T11:21:01;94313.56;;;41.59;nan
79461;BME280;68929;42.666;23.324;2023-07-29T11:23:35;94308.69;;;41.70;nan
79461;BME280;68929;42.666;23.324;2023-07-29T11:26:01;94316.22;;;42.42;nan
79461;BME280;68929;42.666;23.324;2023-07-29T11:28:28;94312.31;;;42.82;nan
79461;BME280;68929;42.666;23.324;2023-07-29T11:30:55;94303.44;;;43.66;nan
79461;BME280;68929;42.666;23.324;2023-07-29T11:33:25;94301.56;;;44.27;nan
79461;BME280;68929;42.666;23.324;2023-07-29T11:35:51;94294.72;;;45.05;nan
79461;BME280;68929;42.666;23.324;2023-07-29T11:38:19;94300.44;;;45.14;nan
79461;BME280;68929;42.666;23.324;2023-07-29T11:41:00;94298.91;;;42.77;nan
79461;BME280;68929;42.666;23.324;2023-07-29T11:43:28;94309.00;;;41.98;nan
79461;BME280;68929;42.666;23.324;2023-07-29T11:45:53;94270.81;;;42.91;nan
79461;BME280;68929;42.666;23.324;2023-07-29T11:48:30;94276.25;;;42.13;nan
79461;BME280;68929;42.666;23.324;2023-07-29T11:51:00;94296.03;;;41.38;nan
79461;BME280;68929;42.666;23.324;2023-07-29T11:53:28;94296.28;;;41.48;nan
79461;BME280;68929;42.666;23.324;2023-07-29T11:55:54;94276.63;;;41.38;nan
79461;BME280;68929;42.666;23.324;2023-07-29T11:58:20;94282.72;;;42.30;nan
79461;BME280;68929;42.666;23.324;2023-07-29T12:00:46;94286.66;;;41.56;nan
79461;BME280;68929;42.666;23.324;2023-07-29T12:03:12;94277.28;;;41.73;nan
79461;BME280;68929;42.666;23.324;2023-07-29T12:05:37;94236.53;;;41.93;nan
79461;BME280;68929;42.666;23.324;2023-07-29T12:08:03;94263.09;;;43.19;nan
79461;BME280;68929;42.666;23.324;2023-07-29T12:10:29;94258.91;;;44.30;nan
79461;BME280;68929;42.666;23.324;2023-07-29T12:12:55;94265.00;;;44.99;nan
79461;BME280;68929;42.666;23.324;2023-07-29T12:15:28;94269.06;;;44.82;nan
79461;BME280;68929;42.666;23.324;2023-07-29T12:17:55;94250.91;;;44.90;nan
79461;BME280;68929;42.666;23.324;2023-07-29T12:20:21;94239.44;;;45.00;nan
79461;BME280;68929;42.666;23.324;2023-07-29T12:22:54;94252.13;;;45.17;nan
79461;BME280;68929;42.666;23.324;2023-07-29T12:25:20;94259.13;;;44.36;nan
79461;BME280;68929;42.666;23.324;2023-07-29T12:27:47;94246.38;;;43.74;nan
79461;BME280;68929;42.666;23.324;2023-07-29T12:30:12;94255.53;;;43.39;nan
79461;BME280;68929;42.666;23.324;2023-07-29T12:32:45;94238.84;;;44.52;nan
79461;BME280;68929;42.666;23.324;2023-07-29T12:35:11;94238.28;;;44.57;nan
79461;BME280;68929;42.666;23.324;2023-07-29T12:37:36;94236.09;;;43.71;nan
79461;BME280;68929;42.666;23.324;2023-07-29T12:40:04;94250.00;;;42.60;nan
79461;BME280;68929;42.666;23.324;2023-07-29T12:42:29;94246.00;;;41.95;nan
79461;BME280;68929;42.666;23.324;2023-07-29T12:44:55;94236.16;;;42.57;nan
79461;BME280;68929;42.666;23.324;2023-07-29T12:47:20;94248.78;;;41.15;nan
79461;BME280;68929;42.666;23.324;2023-07-29T12:49:46;94229.66;;;40.23;nan
79461;BME280;68929;42.666;23.324;2023-07-29T12:52:11;94236.78;;;41.25;nan
79461;BME280;68929;42.666;23.324;2023-07-29T12:54:36;94227.78;;;41.14;nan
79461;BME280;68929;42.666;23.324;2023-07-29T12:57:02;94244.00;;;41.96;nan
79461;BME280;68929;42.666;23.324;2023-07-29T12:59:27;94238.59;;;41.35;nan
79461;BME280;68929;42.666;23.324;2023-07-29T13:01:53;94236.97;;;41.38;nan
79461;BME280;68929;42.666;23.324;2023-07-29T13:04:18;94230.09;;;42.42;nan
79461;BME280;68929;42.666;23.324;2023-07-29T13:06:43;94239.75;;;41.65;nan
79461;BME280;68929;42.666;23.324;2023-07-29T13:09:09;94218.03;;;42.29;nan
79461;BME280;68929;42.666;23.324;2023-07-29T13:11:34;94216.13;;;42.46;nan
79461;BME280;68929;42.666;23.324;2023-07-29T13:14:00;94225.50;;;42.95;nan